Time,TemperatureF,DewpointF,PressureIn,WindDirection,WindDirectionDegrees,WindSpeedMPH,WindSpeedGustMPH,Humidity,HourlyPrecipIn,Conditions,Clouds,dailyrainin,SolarRadiationWatts/m^2,SoftwareType,DateUTC
2012-10-19 00:12:00,46.0,32.0,-100.00,East,95,4.0,5.0,58,0.00,,,0.00,1.000000,,2012-10-19 07:12:00,
2012-10-19 00:22:00,46.0,32.0,-100.00,East,95,4.0,5.0,58,0.00,,,0.00,1.000000,,2012-10-19 07:22:00,
2012-10-19 00:32:00,46.0,32.0,-100.00,East,95,4.0,5.0,58,0.00,,,0.00,1.000000,,2012-10-19 07:32:00,
2012-10-19 00:42:00,46.0,32.0,-100.00,East,95,4.0,5.0,58,0.00,,,0.00,1.000000,,2012-10-19 07:42:00,
2012-10-19 00:52:00,46.0,32.0,-100.00,East,95,4.0,5.0,58,0.00,,,0.00,1.000000,,2012-10-19 07:52:00,
2012-10-19 01:22:00,44.0,32.0,-100.00,East,88,3.0,6.0,63,0.00,,,0.00,1.000000,,2012-10-19 08:22:00,
2012-10-19 01:32:00,44.0,32.0,-100.00,East,88,3.0,6.0,63,0.00,,,0.00,1.000000,,2012-10-19 08:32:00,
2012-10-19 01:42:00,44.0,32.0,-100.00,East,88,3.0,6.0,63,0.00,,,0.00,1.000000,,2012-10-19 08:42:00,
2012-10-19 01:52:00,44.0,32.0,-100.00,East,88,3.0,6.0,63,0.00,,,0.00,1.000000,,2012-10-19 08:52:00,
2012-10-19 02:12:00,43.0,31.0,-100.00,East,98,3.0,5.0,63,0.00,,,0.00,1.000000,,2012-10-19 09:12:00,
2012-10-19 02:22:00,43.0,31.0,-100.00,East,98,3.0,5.0,63,0.00,,,0.00,1.000000,,2012-10-19 09:22:00,
2012-10-19 02:32:00,43.0,31.0,-100.00,East,98,3.0,5.0,63,0.00,,,0.00,1.000000,,2012-10-19 09:32:00,
2012-10-19 02:42:00,43.0,31.0,-100.00,East,98,3.0,5.0,63,0.00,,,0.00,1.000000,,2012-10-19 09:42:00,
2012-10-19 02:52:00,43.0,31.0,-100.00,East,98,3.0,5.0,63,0.00,,,0.00,1.000000,,2012-10-19 09:52:00,
2012-10-19 03:22:00,42.0,33.0,-100.00,ESE,120,1.0,4.0,69,0.00,,,0.00,1.000000,,2012-10-19 10:22:00,
2012-10-19 03:32:00,42.0,33.0,-100.00,ESE,120,1.0,4.0,69,0.00,,,0.00,1.000000,,2012-10-19 10:32:00,
2012-10-19 03:42:00,42.0,33.0,-100.00,ESE,120,1.0,4.0,69,0.00,,,0.00,1.000000,,2012-10-19 10:42:00,
2012-10-19 03:52:00,42.0,33.0,-100.00,ESE,120,1.0,4.0,69,0.00,,,0.00,1.000000,,2012-10-19 10:52:00,
2012-10-19 04:22:00,42.0,33.0,-100.00,SSE,163,1.0,4.0,69,0.00,,,0.00,1.000000,,2012-10-19 11:22:00,
2012-10-19 04:32:00,42.0,33.0,-100.00,SSE,163,1.0,4.0,69,0.00,,,0.00,1.000000,,2012-10-19 11:32:00,
2012-10-19 04:42:00,42.0,33.0,-100.00,SSE,163,1.0,4.0,69,0.00,,,0.00,1.000000,,2012-10-19 11:42:00,
2012-10-19 04:52:00,42.0,33.0,-100.00,SSE,163,1.0,4.0,69,0.00,,,0.00,1.000000,,2012-10-19 11:52:00,
2012-10-19 05:12:00,41.0,33.0,-100.00,East,81,3.0,4.0,73,0.00,,,-99.99,1.000000,,2012-10-19 12:12:00,
2012-10-19 05:22:00,41.0,33.0,-100.00,East,81,3.0,4.0,73,0.00,,,-99.99,1.000000,,2012-10-19 12:22:00,
2012-10-19 05:32:00,41.0,33.0,-100.00,East,81,3.0,4.0,73,0.00,,,-99.99,1.000000,,2012-10-19 12:32:00,
2012-10-19 05:42:00,41.0,33.0,-100.00,East,81,3.0,4.0,73,0.00,,,-99.99,1.000000,,2012-10-19 12:42:00,
2012-10-19 05:52:00,41.0,33.0,-100.00,East,81,3.0,4.0,73,0.00,,,-99.99,1.000000,,2012-10-19 12:52:00,
2012-10-19 06:22:00,43.0,32.0,-100.00,ESE,110,2.0,5.0,66,0.00,,,0.00,1.000000,,2012-10-19 13:22:00,
2012-10-19 06:32:00,43.0,32.0,-100.00,ESE,110,2.0,5.0,66,0.00,,,0.00,1.000000,,2012-10-19 13:32:00,
2012-10-19 06:42:00,43.0,32.0,-100.00,ESE,110,2.0,5.0,66,0.00,,,0.00,1.000000,,2012-10-19 13:42:00,
2012-10-19 06:52:00,43.0,32.0,-100.00,ESE,110,2.0,5.0,66,0.00,,,0.00,1.000000,,2012-10-19 13:52:00,
2012-10-19 07:22:00,43.0,32.0,-100.00,ESE,108,2.0,5.0,65,0.00,,,0.00,1.000000,,2012-10-19 14:22:00,
2012-10-19 07:32:00,43.0,32.0,-100.00,ESE,108,2.0,5.0,65,0.00,,,0.00,1.000000,,2012-10-19 14:32:00,
2012-10-19 07:42:00,43.0,32.0,-100.00,ESE,108,2.0,5.0,65,0.00,,,0.00,1.000000,,2012-10-19 14:42:00,
2012-10-19 07:52:00,43.0,32.0,-100.00,ESE,108,2.0,5.0,65,0.00,,,0.00,1.000000,,2012-10-19 14:52:00,
2012-10-19 08:22:00,41.0,33.0,-100.00,ESE,112,3.0,5.0,72,0.00,,,0.00,6.000000,,2012-10-19 15:22:00,
2012-10-19 08:32:00,41.0,33.0,-100.00,ESE,112,3.0,5.0,72,0.00,,,0.00,6.000000,,2012-10-19 15:32:00,
2012-10-19 08:42:00,41.0,33.0,-100.00,ESE,112,3.0,5.0,72,0.00,,,0.00,6.000000,,2012-10-19 15:42:00,
2012-10-19 08:52:00,41.0,33.0,-100.00,ESE,112,3.0,5.0,72,0.00,,,0.00,6.000000,,2012-10-19 15:52:00,
2012-10-19 09:22:00,43.0,34.0,-100.00,East,94,2.0,4.0,70,0.00,,,0.00,43.000000,,2012-10-19 16:22:00,
2012-10-19 09:32:00,43.0,34.0,-100.00,East,94,2.0,4.0,70,0.00,,,0.00,43.000000,,2012-10-19 16:32:00,
2012-10-19 09:42:00,43.0,34.0,-100.00,East,94,2.0,4.0,70,0.00,,,0.00,43.000000,,2012-10-19 16:42:00,
2012-10-19 09:52:00,43.0,34.0,-100.00,East,94,2.0,4.0,70,0.00,,,0.00,43.000000,,2012-10-19 16:52:00,
2012-10-19 10:22:00,52.0,40.0,-100.00,SSE,157,3.0,6.0,63,0.00,,,0.00,126.000000,,2012-10-19 17:22:00,
2012-10-19 10:33:00,52.0,40.0,-100.00,SSE,157,3.0,6.0,63,0.00,,,0.00,126.000000,,2012-10-19 17:33:00,
2012-10-19 10:42:00,52.0,40.0,-100.00,SSE,157,3.0,6.0,63,0.00,,,0.00,126.000000,,2012-10-19 17:42:00,
2012-10-19 10:52:00,52.0,40.0,-100.00,SSE,157,3.0,6.0,63,0.00,,,0.00,126.000000,,2012-10-19 17:52:00,
2012-10-19 11:22:00,56.0,41.0,-100.00,South,190,5.0,9.0,58,0.00,,,0.00,216.000000,,2012-10-19 18:22:00,
2012-10-19 11:33:00,56.0,41.0,-100.00,South,190,5.0,9.0,58,0.00,,,0.00,216.000000,,2012-10-19 18:33:00,
2012-10-19 11:43:00,56.0,41.0,-100.00,South,190,5.0,9.0,58,0.00,,,0.00,216.000000,,2012-10-19 18:43:00,
2012-10-19 11:52:00,56.0,41.0,-100.00,South,190,5.0,9.0,58,0.00,,,0.00,216.000000,,2012-10-19 18:52:00,
2012-10-19 12:22:00,62.0,38.0,-100.00,SW,214,10.0,17.0,41,0.00,,,0.00,279.000000,,2012-10-19 19:22:00,
2012-10-19 12:32:00,62.0,38.0,-100.00,SW,214,10.0,17.0,41,0.00,,,0.00,279.000000,,2012-10-19 19:32:00,
2012-10-19 12:42:00,62.0,38.0,-100.00,SW,214,10.0,17.0,41,0.00,,,0.00,279.000000,,2012-10-19 19:42:00,
2012-10-19 12:52:00,62.0,38.0,-100.00,SW,214,10.0,17.0,41,0.00,,,0.00,279.000000,,2012-10-19 19:52:00,
2012-10-19 13:22:00,61.0,40.0,-100.00,West,278,9.0,16.0,45,0.00,,,0.00,318.000000,,2012-10-19 20:22:00,
2012-10-19 13:32:00,61.0,40.0,-100.00,West,278,9.0,16.0,45,0.00,,,0.00,318.000000,,2012-10-19 20:32:00,
2012-10-19 13:42:00,61.0,40.0,-100.00,West,278,9.0,16.0,45,0.00,,,0.00,318.000000,,2012-10-19 20:42:00,
2012-10-19 13:52:00,61.0,40.0,-100.00,West,278,9.0,16.0,45,0.00,,,0.00,318.000000,,2012-10-19 20:52:00,
2012-10-19 14:22:00,62.0,40.0,-100.00,West,260,16.0,24.0,44,0.00,,,0.00,328.000000,,2012-10-19 21:22:00,
2012-10-19 14:32:00,62.0,40.0,-100.00,West,260,16.0,24.0,44,0.00,,,0.00,328.000000,,2012-10-19 21:32:00,
2012-10-19 14:42:00,62.0,40.0,-100.00,West,260,16.0,24.0,44,0.00,,,0.00,328.000000,,2012-10-19 21:42:00,
2012-10-19 14:52:00,62.0,40.0,-100.00,West,260,16.0,24.0,44,0.00,,,0.00,328.000000,,2012-10-19 21:52:00,
2012-10-19 15:22:00,62.0,42.0,-100.00,WSW,249,16.0,30.0,48,0.00,,,0.00,318.000000,,2012-10-19 22:22:00,
2012-10-19 15:32:00,62.0,42.0,-100.00,WSW,249,16.0,30.0,48,0.00,,,0.00,318.000000,,2012-10-19 22:32:00,
2012-10-19 15:42:00,62.0,42.0,-100.00,WSW,249,16.0,30.0,48,0.00,,,0.00,318.000000,,2012-10-19 22:42:00,
2012-10-19 15:52:00,62.0,42.0,-100.00,WSW,249,16.0,30.0,48,0.00,,,0.00,318.000000,,2012-10-19 22:52:00,
2012-10-19 16:22:00,60.0,43.0,-100.00,WSW,238,15.0,32.0,54,0.00,,,0.00,243.000000,,2012-10-19 23:22:00,
2012-10-19 16:32:00,60.0,43.0,-100.00,WSW,238,15.0,32.0,54,0.00,,,0.00,243.000000,,2012-10-19 23:32:00,
2012-10-19 16:42:00,60.0,43.0,-100.00,WSW,238,15.0,32.0,54,0.00,,,0.00,243.000000,,2012-10-19 23:42:00,
2012-10-19 16:52:00,60.0,43.0,-100.00,WSW,238,15.0,32.0,54,0.00,,,0.00,243.000000,,2012-10-19 23:52:00,
2012-10-19 17:22:00,59.0,42.0,-100.00,WSW,245,14.0,22.0,54,0.00,,,0.00,105.000000,,2012-10-20 00:22:00,
2012-10-19 17:32:00,59.0,42.0,-100.00,WSW,245,14.0,22.0,54,0.00,,,0.00,105.000000,,2012-10-20 00:32:00,
2012-10-19 17:42:00,59.0,42.0,-100.00,WSW,245,14.0,22.0,54,0.00,,,0.00,105.000000,,2012-10-20 00:42:00,
2012-10-19 17:52:00,59.0,42.0,-100.00,WSW,245,14.0,22.0,54,0.00,,,0.00,105.000000,,2012-10-20 00:52:00,
2012-10-19 18:12:00,58.0,42.0,-100.00,WSW,238,12.0,22.0,55,0.00,,,0.00,56.000000,,2012-10-20 01:12:00,
2012-10-19 18:22:00,58.0,42.0,-100.00,WSW,238,12.0,22.0,55,0.00,,,0.00,56.000000,,2012-10-20 01:22:00,
2012-10-19 18:32:00,58.0,42.0,-100.00,WSW,238,12.0,22.0,55,0.00,,,0.00,56.000000,,2012-10-20 01:32:00,
2012-10-19 18:42:00,58.0,42.0,-100.00,WSW,238,12.0,22.0,55,0.00,,,0.00,56.000000,,2012-10-20 01:42:00,
2012-10-19 18:52:00,58.0,42.0,-100.00,WSW,238,12.0,22.0,55,0.00,,,0.00,56.000000,,2012-10-20 01:52:00,
2012-10-19 19:22:00,54.0,45.0,-100.00,West,269,16.0,22.0,71,0.00,,,0.00,4.000000,,2012-10-20 02:22:00,
2012-10-19 19:32:00,54.0,45.0,-100.00,West,269,16.0,22.0,71,0.00,,,0.00,4.000000,,2012-10-20 02:32:00,
2012-10-19 19:42:00,54.0,45.0,-100.00,West,269,16.0,22.0,71,0.00,,,0.00,4.000000,,2012-10-20 02:42:00,
2012-10-19 19:52:00,54.0,45.0,-100.00,West,269,16.0,22.0,71,0.00,,,0.00,4.000000,,2012-10-20 02:52:00,
2012-10-19 20:12:00,52.0,45.0,-100.00,WSW,248,11.0,25.0,76,0.00,,,0.00,1.000000,,2012-10-20 03:12:00,
2012-10-19 20:22:00,52.0,45.0,-100.00,WSW,248,11.0,25.0,76,0.00,,,0.00,1.000000,,2012-10-20 03:22:00,
2012-10-19 20:32:00,52.0,45.0,-100.00,WSW,248,11.0,25.0,76,0.00,,,0.00,1.000000,,2012-10-20 03:32:00,
2012-10-19 20:42:00,52.0,45.0,-100.00,WSW,248,11.0,25.0,76,0.00,,,0.00,1.000000,,2012-10-20 03:42:00,
2012-10-19 20:52:00,52.0,45.0,-100.00,WSW,248,11.0,25.0,76,0.00,,,0.00,1.000000,,2012-10-20 03:52:00,
2012-10-19 21:12:00,51.0,46.0,-100.00,SW,222,9.0,17.0,83,0.00,,,0.00,1.000000,,2012-10-20 04:12:00,
2012-10-19 21:22:00,51.0,46.0,-100.00,SW,222,9.0,17.0,83,0.00,,,0.00,1.000000,,2012-10-20 04:22:00,
2012-10-19 21:32:00,51.0,46.0,-100.00,SW,222,9.0,17.0,83,0.00,,,0.00,1.000000,,2012-10-20 04:32:00,
2012-10-19 21:42:00,51.0,46.0,-100.00,SW,222,9.0,17.0,83,0.00,,,0.00,1.000000,,2012-10-20 04:42:00,
2012-10-19 21:52:00,51.0,46.0,-100.00,SW,222,9.0,17.0,83,0.00,,,0.00,1.000000,,2012-10-20 04:52:00,
2012-10-19 22:12:00,50.0,46.0,-100.00,SW,232,9.0,19.0,86,0.00,,,0.00,1.000000,,2012-10-20 05:12:00,
2012-10-19 22:22:00,50.0,46.0,-100.00,SW,232,9.0,19.0,86,0.00,,,0.00,1.000000,,2012-10-20 05:22:00,
2012-10-19 22:32:00,50.0,46.0,-100.00,SW,232,9.0,19.0,86,0.00,,,0.00,1.000000,,2012-10-20 05:32:00,
2012-10-19 22:42:00,50.0,46.0,-100.00,SW,232,9.0,19.0,86,0.00,,,0.00,1.000000,,2012-10-20 05:42:00,
2012-10-19 22:52:00,50.0,46.0,-100.00,SW,232,9.0,19.0,86,0.00,,,0.00,1.000000,,2012-10-20 05:52:00,
2012-10-19 23:22:00,50.0,45.0,-100.00,WSW,246,11.0,18.0,83,0.00,,,0.00,1.000000,,2012-10-20 06:22:00,
2012-10-19 23:32:00,50.0,45.0,-100.00,WSW,246,11.0,18.0,83,0.00,,,0.00,1.000000,,2012-10-20 06:32:00,
2012-10-19 23:42:00,50.0,45.0,-100.00,WSW,246,11.0,18.0,83,0.00,,,0.00,1.000000,,2012-10-20 06:42:00,
2012-10-19 23:52:00,50.0,45.0,-100.00,WSW,246,11.0,18.0,83,0.00,,,0.00,1.000000,,2012-10-20 06:52:00,